createdAt,value
2023-01-08T00:03:44.262Z,100932.00
2023-01-08T00:08:47.301Z,100886.38
2023-01-08T00:13:49.860Z,100942.34
2023-01-08T00:18:52.409Z,100949.72
2023-01-08T00:23:55.116Z,100926.88
2023-01-08T00:28:57.727Z,100950.63
2023-01-08T00:34:00.340Z,100945.31
2023-01-08T00:39:02.905Z,100956.16
2023-01-08T00:44:05.619Z,100945.03
2023-01-08T00:49:08.198Z,100948.66
2023-01-08T00:54:13.780Z,100940.91
2023-01-08T00:59:16.503Z,100963.16
2023-01-08T01:04:19.058Z,100966.00
2023-01-08T01:09:21.700Z,100959.88
2023-01-08T01:14:24.623Z,100946.31
2023-01-08T01:19:27.179Z,100930.31
2023-01-08T01:24:29.736Z,100946.13
2023-01-08T01:29:32.345Z,100961.88
2023-01-08T01:34:35.353Z,100955.81
2023-01-08T01:39:37.890Z,100958.69
2023-01-08T01:44:43.100Z,100945.00
2023-01-08T01:49:53.212Z,100953.19
2023-01-08T01:54:56.753Z,100956.34
2023-01-08T02:00:01.989Z,100962.50
2023-01-08T02:05:14.283Z,100954.16
2023-01-08T02:10:51.778Z,100951.97
2023-01-08T02:15:58.279Z,100961.84
2023-01-08T02:21:11.242Z,100964.91
2023-01-08T02:26:16.179Z,100966.00
2023-01-08T02:31:21.632Z,100932.88
2023-01-08T02:36:40.303Z,100964.66
2023-01-08T02:41:48.821Z,100959.41
2023-01-08T02:46:55.088Z,100960.50
2023-01-08T02:52:00.485Z,100954.00
2023-01-08T02:57:08.433Z,100907.69
2023-01-08T03:02:12.177Z,100933.47
2023-01-08T03:07:15.259Z,100926.53
2023-01-08T03:12:21.300Z,100952.50
2023-01-08T03:17:31.765Z,100953.00
2023-01-08T03:22:38.245Z,100954.19
2023-01-08T03:27:45.662Z,100960.31
2023-01-08T03:32:51.152Z,100952.22
2023-01-08T03:38:03.590Z,100967.19
2023-01-08T03:43:06.282Z,100972.63
2023-01-08T03:48:10.169Z,100954.97
2023-01-08T03:53:13.063Z,100963.44
2023-01-08T03:58:15.620Z,100970.53
2023-01-08T04:03:18.890Z,100969.56
2023-01-08T04:08:21.606Z,100965.78
2023-01-08T04:13:24.126Z,100976.38
2023-01-08T04:18:26.658Z,100937.84
2023-01-08T04:23:29.227Z,100925.09
2023-01-08T04:28:31.932Z,100954.84
2023-01-08T04:33:34.707Z,100952.59
2023-01-08T04:38:37.471Z,100952.22
2023-01-08T04:43:40.086Z,100946.22
2023-01-08T04:48:42.710Z,100942.31
2023-01-08T04:53:46.435Z,100947.09
2023-01-08T04:58:49.061Z,100949.31
2023-01-08T05:04:03.790Z,100951.91
2023-01-08T05:09:06.478Z,100955.16
2023-01-08T05:14:09.058Z,100954.94
2023-01-08T05:19:11.722Z,100949.75
2023-01-08T05:24:14.347Z,100960.13
2023-01-08T05:29:17.715Z,100949.66
2023-01-08T05:34:20.309Z,100943.53
2023-01-08T05:39:22.921Z,100956.41
2023-01-08T05:44:25.494Z,100951.06
2023-01-08T05:49:28.266Z,100951.69
2023-01-08T05:54:30.984Z,100952.47
2023-01-08T05:59:34.092Z,100944.94
2023-01-08T06:04:36.726Z,100951.25
2023-01-08T06:09:39.326Z,100936.44
2023-01-08T06:14:41.966Z,100948.34
2023-01-08T06:19:46.666Z,100930.38
2023-01-08T06:24:49.203Z,100936.03
2023-01-08T06:29:51.843Z,100958.63
2023-01-08T06:34:54.406Z,100956.72
2023-01-08T06:39:57.013Z,100910.66
2023-01-08T06:44:59.579Z,100966.31
2023-01-08T06:50:02.426Z,100959.03
2023-01-08T06:55:06.397Z,100932.31
2023-01-08T07:00:09.591Z,100984.72
2023-01-08T07:05:12.468Z,100976.84
2023-01-08T07:10:15.261Z,100983.06
2023-01-08T07:15:17.945Z,100981.72
2023-01-08T07:20:20.569Z,100976.28
2023-01-08T07:25:25.259Z,100973.00
2023-01-08T07:30:30.658Z,100995.03
2023-01-08T07:35:33.536Z,100991.03
2023-01-08T07:40:38.476Z,101004.50
2023-01-08T07:45:42.371Z,101021.28
2023-01-08T07:50:45.472Z,101008.53
2023-01-08T07:55:48.446Z,101006.03
2023-01-08T08:00:51.073Z,101004.75
2023-01-08T08:05:53.974Z,101012.19
2023-01-08T08:10:56.742Z,100999.53
2023-01-08T08:16:04.728Z,100960.81
2023-01-08T08:21:08.565Z,100967.31
2023-01-08T08:26:11.623Z,100990.03
2023-01-08T08:31:16.652Z,100992.16
2023-01-08T08:36:23.612Z,100992.16
2023-01-08T08:41:32.156Z,100969.13
2023-01-08T08:46:36.109Z,100985.59
2023-01-08T08:51:41.246Z,100979.72
2023-01-08T08:56:50.229Z,100961.69
2023-01-08T09:01:52.901Z,100964.84
2023-01-08T09:06:55.591Z,100942.63
2023-01-08T09:11:58.338Z,100975.91
2023-01-08T09:17:00.930Z,100970.81
2023-01-08T09:22:06.692Z,100941.94
2023-01-08T09:27:11.141Z,100995.53
2023-01-08T09:32:14.131Z,100973.09
2023-01-08T09:37:16.869Z,100970.03
2023-01-08T09:42:24.284Z,100955.50
2023-01-08T09:47:36.484Z,100962.47
2023-01-08T09:52:39.396Z,100964.28
2023-01-08T09:57:43.829Z,100944.63
2023-01-08T10:02:46.649Z,100953.59
2023-01-08T10:07:54.939Z,100953.75
2023-01-08T10:12:58.761Z,100954.03
2023-01-08T10:18:04.670Z,100953.19
2023-01-08T10:23:11.525Z,100965.84
2023-01-08T10:28:24.215Z,100949.06
2023-01-08T10:33:38.588Z,100961.41
2023-01-08T10:39:21.064Z,100949.44
2023-01-08T10:44:25.773Z,100952.50
2023-01-08T10:49:39.525Z,100959.22
2023-01-08T10:54:42.177Z,100956.88
2023-01-08T10:59:44.788Z,100956.31
2023-01-08T11:04:54.231Z,100960.16
2023-01-08T11:10:04.015Z,100963.72
2023-01-08T11:15:27.123Z,100957.22
2023-01-08T11:20:36.952Z,100950.84
2023-01-08T11:25:43.761Z,100970.31
2023-01-08T11:30:53.850Z,100962.78
2023-01-08T11:36:04.198Z,100959.28
2023-01-08T11:41:12.588Z,100948.19
2023-01-08T11:46:33.363Z,100953.72
2023-01-08T11:52:03.790Z,100958.06
2023-01-08T11:57:27.933Z,100929.78
2023-01-08T12:02:56.144Z,100940.25
2023-01-08T12:08:29.489Z,100949.06
2023-01-08T12:14:09.407Z,100945.91
2023-01-08T12:19:30.671Z,100951.63
2023-01-08T12:24:39.440Z,100954.94
2023-01-08T12:30:18.667Z,100954.44
2023-01-08T12:35:29.433Z,100965.22
2023-01-08T12:40:47.903Z,100946.09
2023-01-08T12:45:54.176Z,100953.63
2023-01-08T12:51:30.785Z,100954.75
2023-01-08T12:56:45.529Z,100954.69
2023-01-08T13:02:00.003Z,100939.25
2023-01-08T13:07:05.027Z,100936.41
2023-01-08T13:12:13.275Z,100948.59
2023-01-08T13:17:22.427Z,100959.47
2023-01-08T13:22:33.392Z,100970.66
2023-01-08T13:27:36.065Z,100975.19
2023-01-08T13:32:49.030Z,100969.38
2023-01-08T13:38:16.063Z,100979.41
2023-01-08T13:43:25.832Z,100981.50
2023-01-08T13:48:32.632Z,100985.59
2023-01-08T13:53:35.331Z,100992.91
2023-01-08T13:58:53.651Z,100987.38
2023-01-08T14:03:56.254Z,101007.69
2023-01-08T14:09:01.443Z,100990.56
2023-01-08T14:14:04.496Z,100999.78
2023-01-08T14:19:07.503Z,100981.88
2023-01-08T14:24:16.618Z,100995.44
2023-01-08T14:29:22.609Z,100994.81
2023-01-08T14:34:29.913Z,100994.63
2023-01-08T14:39:38.535Z,101004.03
2023-01-08T14:44:44.479Z,100989.03
2023-01-08T14:49:53.177Z,100998.72
2023-01-08T14:55:00.148Z,101003.16
2023-01-08T15:00:03.226Z,101008.69
2023-01-08T15:05:17.926Z,101005.19
2023-01-08T15:10:32.104Z,101000.25
2023-01-08T15:15:41.807Z,100996.88
2023-01-08T15:20:45.207Z,100985.09
2023-01-08T15:25:48.064Z,100995.53
2023-01-08T15:30:51.477Z,101014.00
2023-01-08T15:35:54.124Z,101004.41
2023-01-08T15:40:56.712Z,101010.97
2023-01-08T15:45:59.625Z,101016.88
2023-01-08T15:51:02.378Z,100997.38
2023-01-08T15:56:05.140Z,100964.78
2023-01-08T16:01:09.533Z,100998.06
2023-01-08T16:06:12.150Z,101002.78
2023-01-08T16:11:14.900Z,100994.56
2023-01-08T16:16:17.564Z,101001.81
2023-01-08T16:21:20.214Z,100986.13
2023-01-08T16:26:22.872Z,100986.13
2023-01-08T16:31:25.611Z,100983.19
2023-01-08T16:36:28.465Z,100977.16
2023-01-08T16:41:31.360Z,100982.22
2023-01-08T16:46:33.939Z,100978.66
2023-01-08T16:51:36.617Z,100946.72
2023-01-08T16:56:39.362Z,100972.13
2023-01-08T17:01:42.102Z,100975.75
2023-01-08T17:06:47.030Z,100969.06
2023-01-08T17:11:49.889Z,100947.66
2023-01-08T17:16:52.667Z,100955.06
2023-01-08T17:21:55.310Z,100956.88
2023-01-08T17:26:58.491Z,100955.97
2023-01-08T17:32:01.661Z,100959.78
2023-01-08T17:37:04.299Z,100970.72
2023-01-08T17:42:25.259Z,100966.72
2023-01-08T17:47:27.664Z,100974.34
2023-01-08T17:52:30.173Z,100965.75
2023-01-08T17:57:32.803Z,100971.50
2023-01-08T18:02:36.002Z,100972.06
2023-01-08T18:07:38.807Z,100979.22
2023-01-08T18:12:43.677Z,100973.91
2023-01-08T18:17:46.489Z,100951.44
2023-01-08T18:22:49.147Z,100988.97
2023-01-08T18:27:51.744Z,100983.84
2023-01-08T18:32:54.464Z,100996.91
2023-01-08T18:37:57.236Z,101001.91
2023-01-08T18:42:59.800Z,100997.47
2023-01-08T18:48:03.719Z,101013.00
2023-01-08T18:53:07.784Z,101004.34
2023-01-08T18:58:10.697Z,101003.09
2023-01-08T19:03:13.381Z,100989.13
2023-01-08T19:08:16.104Z,101025.59
2023-01-08T19:13:19.342Z,101041.25
2023-01-08T19:18:22.995Z,101052.91
2023-01-08T19:23:25.939Z,101049.38
2023-01-08T19:28:28.489Z,101037.75
2023-01-08T19:33:31.503Z,101057.28
2023-01-08T19:38:34.462Z,101057.38
2023-01-08T19:43:43.042Z,101049.38
2023-01-08T19:48:45.712Z,101052.97
2023-01-08T19:53:48.462Z,101051.41
2023-01-08T19:58:51.059Z,101053.22
2023-01-08T20:03:54.991Z,101023.22
2023-01-08T20:08:59.800Z,101045.41
2023-01-08T20:14:05.400Z,101023.03
2023-01-08T20:19:08.016Z,101040.06
2023-01-08T20:24:15.358Z,101024.63
2023-01-08T20:29:18.737Z,101019.34
2023-01-08T20:34:21.339Z,101051.09
2023-01-08T20:39:24.010Z,101052.91
2023-01-08T20:44:26.567Z,101051.00
2023-01-08T20:49:29.755Z,101050.63
2023-01-08T20:54:32.386Z,101052.41
2023-01-08T20:59:35.964Z,101050.97
2023-01-08T21:04:41.634Z,101050.38
2023-01-08T21:09:44.451Z,101010.72
2023-01-08T21:14:47.066Z,101040.59
2023-01-08T21:19:49.684Z,101057.75
2023-01-08T21:24:52.376Z,101058.03
2023-01-08T21:29:54.970Z,101057.31
2023-01-08T21:34:57.634Z,101053.00
2023-01-08T21:40:00.312Z,101060.03
2023-01-08T21:45:21.547Z,101007.38
2023-01-08T21:50:24.258Z,101050.44
2023-01-08T21:55:26.883Z,101041.94
2023-01-08T22:00:31.324Z,101050.13
2023-01-08T22:05:33.952Z,101051.09
2023-01-08T22:10:36.634Z,101054.47
2023-01-08T22:15:39.231Z,101056.13
2023-01-08T22:20:43.071Z,101058.38
2023-01-08T22:25:45.712Z,101056.81
2023-01-08T22:30:48.380Z,101066.50
2023-01-08T22:35:51.087Z,101070.22
2023-01-08T22:40:53.816Z,101072.69
2023-01-08T22:46:00.485Z,101069.59
2023-01-08T22:51:03.846Z,101064.66
2023-01-08T22:56:12.552Z,101051.75
2023-01-08T23:01:21.756Z,101056.00
2023-01-08T23:06:26.294Z,101055.91
2023-01-08T23:11:29.045Z,101055.81
2023-01-08T23:16:31.690Z,101049.44
2023-01-08T23:21:36.513Z,101049.06
2023-01-08T23:26:39.301Z,101037.22
2023-01-08T23:31:44.121Z,101050.63
2023-01-08T23:36:46.836Z,101059.41
2023-01-08T23:41:49.459Z,101058.56
2023-01-08T23:46:52.015Z,101059.72
2023-01-08T23:51:55.945Z,101052.72
2023-01-08T23:56:58.675Z,101066.09
